sensor_id;sensor_type;location;lat;lon;timestamp;P1;durP1;ratioP1;P2;durP2;ratioP2
6177;SDS011;3122;48.208;11.174;2023-10-19T00:02:49;25.80;;;17.23;;
6177;SDS011;3122;48.208;11.174;2023-10-19T00:07:54;27.53;;;17.67;;
6177;SDS011;3122;48.208;11.174;2023-10-19T00:12:57;25.37;;;17.57;;
6177;SDS011;3122;48.208;11.174;2023-10-19T00:18:03;26.93;;;18.90;;
6177;SDS011;3122;48.208;11.174;2023-10-19T00:23:16;29.07;;;17.60;;
6177;SDS011;3122;48.208;11.174;2023-10-19T00:28:28;28.50;;;19.33;;
6177;SDS011;3122;48.208;11.174;2023-10-19T00:33:29;29.80;;;18.80;;
6177;SDS011;3122;48.208;11.174;2023-10-19T00:38:32;28.93;;;19.40;;
6177;SDS011;3122;48.208;11.174;2023-10-19T00:43:37;29.40;;;19.27;;
6177;SDS011;3122;48.208;11.174;2023-10-19T00:48:52;28.47;;;18.30;;
6177;SDS011;3122;48.208;11.174;2023-10-19T00:54:00;28.27;;;19.07;;
6177;SDS011;3122;48.208;11.174;2023-10-19T00:59:09;27.20;;;17.43;;
6177;SDS011;3122;48.208;11.174;2023-10-19T01:04:20;27.40;;;18.90;;
6177;SDS011;3122;48.208;11.174;2023-10-19T01:09:23;27.03;;;18.20;;
6177;SDS011;3122;48.208;11.174;2023-10-19T01:14:27;26.77;;;17.13;;
6177;SDS011;3122;48.208;11.174;2023-10-19T01:19:27;25.73;;;18.03;;
6177;SDS011;3122;48.208;11.174;2023-10-19T01:24:28;26.03;;;18.40;;
6177;SDS011;3122;48.208;11.174;2023-10-19T01:29:41;22.97;;;16.97;;
6177;SDS011;3122;48.208;11.174;2023-10-19T01:34:43;27.80;;;17.80;;
6177;SDS011;3122;48.208;11.174;2023-10-19T01:39:43;24.30;;;16.63;;
6177;SDS011;3122;48.208;11.174;2023-10-19T01:44:45;27.80;;;18.50;;
6177;SDS011;3122;48.208;11.174;2023-10-19T01:49:46;32.07;;;19.40;;
6177;SDS011;3122;48.208;11.174;2023-10-19T01:54:52;29.63;;;19.10;;
6177;SDS011;3122;48.208;11.174;2023-10-19T01:59:58;27.10;;;18.67;;
6177;SDS011;3122;48.208;11.174;2023-10-19T02:04:59;26.87;;;17.90;;
6177;SDS011;3122;48.208;11.174;2023-10-19T02:10:00;27.57;;;18.50;;
6177;SDS011;3122;48.208;11.174;2023-10-19T02:15:01;27.53;;;18.20;;
6177;SDS011;3122;48.208;11.174;2023-10-19T02:20:01;28.80;;;18.43;;
6177;SDS011;3122;48.208;11.174;2023-10-19T02:25:17;28.30;;;17.43;;
6177;SDS011;3122;48.208;11.174;2023-10-19T02:30:19;25.30;;;17.60;;
6177;SDS011;3122;48.208;11.174;2023-10-19T02:35:19;28.80;;;17.70;;
6177;SDS011;3122;48.208;11.174;2023-10-19T02:40:20;22.47;;;16.40;;
6177;SDS011;3122;48.208;11.174;2023-10-19T02:45:23;20.87;;;13.60;;
6177;SDS011;3122;48.208;11.174;2023-10-19T02:50:24;20.93;;;14.10;;
6177;SDS011;3122;48.208;11.174;2023-10-19T02:55:26;21.97;;;15.57;;
6177;SDS011;3122;48.208;11.174;2023-10-19T03:00:26;19.80;;;15.20;;
6177;SDS011;3122;48.208;11.174;2023-10-19T03:05:34;22.00;;;15.07;;
6177;SDS011;3122;48.208;11.174;2023-10-19T03:10:35;20.40;;;14.23;;
6177;SDS011;3122;48.208;11.174;2023-10-19T03:15:42;17.17;;;13.43;;
6177;SDS011;3122;48.208;11.174;2023-10-19T03:20:43;20.30;;;14.20;;
6177;SDS011;3122;48.208;11.174;2023-10-19T03:25:43;19.83;;;15.17;;
6177;SDS011;3122;48.208;11.174;2023-10-19T03:31:04;22.57;;;16.43;;
6177;SDS011;3122;48.208;11.174;2023-10-19T03:36:04;21.43;;;16.30;;
6177;SDS011;3122;48.208;11.174;2023-10-19T03:41:13;17.30;;;13.20;;
6177;SDS011;3122;48.208;11.174;2023-10-19T03:46:13;18.63;;;13.80;;
6177;SDS011;3122;48.208;11.174;2023-10-19T03:51:22;18.40;;;13.90;;
6177;SDS011;3122;48.208;11.174;2023-10-19T03:56:25;15.13;;;12.43;;
6177;SDS011;3122;48.208;11.174;2023-10-19T04:01:25;19.27;;;13.70;;
6177;SDS011;3122;48.208;11.174;2023-10-19T04:06:27;16.60;;;13.70;;
6177;SDS011;3122;48.208;11.174;2023-10-19T04:11:27;16.47;;;12.60;;
6177;SDS011;3122;48.208;11.174;2023-10-19T04:16:33;17.37;;;12.93;;
6177;SDS011;3122;48.208;11.174;2023-10-19T04:21:37;19.83;;;12.83;;
6177;SDS011;3122;48.208;11.174;2023-10-19T04:26:44;16.23;;;12.70;;
6177;SDS011;3122;48.208;11.174;2023-10-19T04:31:44;13.77;;;11.43;;
6177;SDS011;3122;48.208;11.174;2023-10-19T04:36:54;16.47;;;12.37;;
6177;SDS011;3122;48.208;11.174;2023-10-19T04:41:55;12.87;;;10.30;;
6177;SDS011;3122;48.208;11.174;2023-10-19T04:46:56;17.50;;;12.97;;
6177;SDS011;3122;48.208;11.174;2023-10-19T04:51:57;17.20;;;12.00;;
6177;SDS011;3122;48.208;11.174;2023-10-19T04:56:57;16.17;;;11.90;;
6177;SDS011;3122;48.208;11.174;2023-10-19T05:02:00;14.87;;;11.80;;
6177;SDS011;3122;48.208;11.174;2023-10-19T05:07:05;16.40;;;12.80;;
6177;SDS011;3122;48.208;11.174;2023-10-19T05:12:06;14.00;;;11.90;;
6177;SDS011;3122;48.208;11.174;2023-10-19T05:17:11;15.20;;;11.70;;
6177;SDS011;3122;48.208;11.174;2023-10-19T05:22:12;13.23;;;11.57;;
6177;SDS011;3122;48.208;11.174;2023-10-19T05:27:12;17.40;;;13.30;;
6177;SDS011;3122;48.208;11.174;2023-10-19T05:32:13;14.90;;;12.60;;
6177;SDS011;3122;48.208;11.174;2023-10-19T05:37:13;17.10;;;13.20;;
6177;SDS011;3122;48.208;11.174;2023-10-19T05:42:16;16.53;;;12.40;;
6177;SDS011;3122;48.208;11.174;2023-10-19T05:47:16;16.17;;;12.10;;
6177;SDS011;3122;48.208;11.174;2023-10-19T05:52:17;14.97;;;12.00;;
6177;SDS011;3122;48.208;11.174;2023-10-19T05:57:17;18.00;;;13.07;;
6177;SDS011;3122;48.208;11.174;2023-10-19T06:02:18;20.77;;;14.80;;
6177;SDS011;3122;48.208;11.174;2023-10-19T06:07:19;15.03;;;12.27;;
6177;SDS011;3122;48.208;11.174;2023-10-19T06:12:21;43.23;;;24.83;;
6177;SDS011;3122;48.208;11.174;2023-10-19T06:17:21;34.27;;;23.03;;
6177;SDS011;3122;48.208;11.174;2023-10-19T06:22:23;32.13;;;19.43;;
6177;SDS011;3122;48.208;11.174;2023-10-19T06:27:23;29.53;;;20.43;;
6177;SDS011;3122;48.208;11.174;2023-10-19T06:32:24;20.47;;;15.57;;
6177;SDS011;3122;48.208;11.174;2023-10-19T06:37:26;20.90;;;14.83;;
6177;SDS011;3122;48.208;11.174;2023-10-19T06:42:26;17.30;;;13.93;;
6177;SDS011;3122;48.208;11.174;2023-10-19T06:47:27;19.77;;;14.80;;
6177;SDS011;3122;48.208;11.174;2023-10-19T06:52:28;17.27;;;13.70;;
6177;SDS011;3122;48.208;11.174;2023-10-19T06:57:30;17.50;;;14.70;;
6177;SDS011;3122;48.208;11.174;2023-10-19T07:02:32;25.47;;;18.57;;
6177;SDS011;3122;48.208;11.174;2023-10-19T07:07:33;21.97;;;16.00;;
6177;SDS011;3122;48.208;11.174;2023-10-19T07:12:34;17.83;;;12.70;;
6177;SDS011;3122;48.208;11.174;2023-10-19T07:17:42;17.90;;;12.80;;
6177;SDS011;3122;48.208;11.174;2023-10-19T07:22:43;20.07;;;15.03;;
6177;SDS011;3122;48.208;11.174;2023-10-19T07:27:45;20.13;;;14.50;;
6177;SDS011;3122;48.208;11.174;2023-10-19T07:32:47;21.10;;;13.17;;
6177;SDS011;3122;48.208;11.174;2023-10-19T07:37:51;15.60;;;11.80;;
6177;SDS011;3122;48.208;11.174;2023-10-19T07:42:52;15.17;;;11.37;;
6177;SDS011;3122;48.208;11.174;2023-10-19T07:47:54;11.87;;;8.87;;
6177;SDS011;3122;48.208;11.174;2023-10-19T07:52:54;10.87;;;9.10;;
6177;SDS011;3122;48.208;11.174;2023-10-19T07:57:55;15.80;;;9.57;;
6177;SDS011;3122;48.208;11.174;2023-10-19T08:02:57;11.50;;;8.77;;
6177;SDS011;3122;48.208;11.174;2023-10-19T08:07:58;10.27;;;9.10;;
6177;SDS011;3122;48.208;11.174;2023-10-19T08:13:00;10.10;;;8.37;;
6177;SDS011;3122;48.208;11.174;2023-10-19T08:18:01;8.50;;;6.93;;
6177;SDS011;3122;48.208;11.174;2023-10-19T08:23:01;8.70;;;6.37;;
6177;SDS011;3122;48.208;11.174;2023-10-19T08:28:02;6.10;;;5.60;;
6177;SDS011;3122;48.208;11.174;2023-10-19T08:33:03;5.73;;;5.23;;
6177;SDS011;3122;48.208;11.174;2023-10-19T08:38:04;7.40;;;4.97;;
6177;SDS011;3122;48.208;11.174;2023-10-19T08:43:11;6.60;;;4.80;;
6177;SDS011;3122;48.208;11.174;2023-10-19T08:48:13;5.63;;;5.00;;
6177;SDS011;3122;48.208;11.174;2023-10-19T08:53:14;7.00;;;5.00;;
6177;SDS011;3122;48.208;11.174;2023-10-19T08:58:19;5.43;;;4.93;;
6177;SDS011;3122;48.208;11.174;2023-10-19T09:03:23;7.57;;;5.10;;
6177;SDS011;3122;48.208;11.174;2023-10-19T09:08:24;6.50;;;5.90;;
6177;SDS011;3122;48.208;11.174;2023-10-19T09:13:24;10.83;;;6.43;;
6177;SDS011;3122;48.208;11.174;2023-10-19T09:18:25;10.10;;;7.00;;
6177;SDS011;3122;48.208;11.174;2023-10-19T09:23:30;8.87;;;7.80;;
6177;SDS011;3122;48.208;11.174;2023-10-19T09:28:31;8.07;;;7.27;;
6177;SDS011;3122;48.208;11.174;2023-10-19T09:33:34;9.17;;;6.77;;
6177;SDS011;3122;48.208;11.174;2023-10-19T09:38:35;11.23;;;10.10;;
6177;SDS011;3122;48.208;11.174;2023-10-19T09:43:45;7.00;;;6.23;;
6177;SDS011;3122;48.208;11.174;2023-10-19T09:48:48;7.07;;;5.70;;
6177;SDS011;3122;48.208;11.174;2023-10-19T09:54:04;8.03;;;6.00;;
6177;SDS011;3122;48.208;11.174;2023-10-19T09:59:23;7.27;;;6.50;;
6177;SDS011;3122;48.208;11.174;2023-10-19T10:04:32;7.10;;;5.80;;
6177;SDS011;3122;48.208;11.174;2023-10-19T10:09:39;8.37;;;6.53;;
6177;SDS011;3122;48.208;11.174;2023-10-19T10:15:00;10.30;;;6.63;;
6177;SDS011;3122;48.208;11.174;2023-10-19T10:25:34;6.60;;;5.93;;
6177;SDS011;3122;48.208;11.174;2023-10-19T10:30:34;5.77;;;5.07;;
6177;SDS011;3122;48.208;11.174;2023-10-19T10:40:44;9.50;;;7.73;;
6177;SDS011;3122;48.208;11.174;2023-10-19T10:45:45;7.50;;;6.50;;
6177;SDS011;3122;48.208;11.174;2023-10-19T10:50:46;13.40;;;9.90;;
6177;SDS011;3122;48.208;11.174;2023-10-19T10:55:47;11.67;;;9.10;;
6177;SDS011;3122;48.208;11.174;2023-10-19T11:00:47;13.10;;;7.43;;
6177;SDS011;3122;48.208;11.174;2023-10-19T11:05:51;11.90;;;8.60;;
6177;SDS011;3122;48.208;11.174;2023-10-19T11:10:52;13.23;;;9.80;;
6177;SDS011;3122;48.208;11.174;2023-10-19T11:15:54;10.27;;;8.47;;
6177;SDS011;3122;48.208;11.174;2023-10-19T11:20:56;8.10;;;7.30;;
6177;SDS011;3122;48.208;11.174;2023-10-19T11:25:59;7.70;;;6.90;;
6177;SDS011;3122;48.208;11.174;2023-10-19T11:36:16;5.40;;;4.90;;
6177;SDS011;3122;48.208;11.174;2023-10-19T11:41:18;6.50;;;5.87;;
6177;SDS011;3122;48.208;11.174;2023-10-19T11:46:19;7.13;;;5.40;;
6177;SDS011;3122;48.208;11.174;2023-10-19T11:51:25;8.63;;;5.47;;
6177;SDS011;3122;48.208;11.174;2023-10-19T11:56:26;6.90;;;4.80;;
6177;SDS011;3122;48.208;11.174;2023-10-19T12:01:27;6.30;;;4.70;;
6177;SDS011;3122;48.208;11.174;2023-10-19T12:06:29;8.53;;;4.63;;
6177;SDS011;3122;48.208;11.174;2023-10-19T12:11:30;13.40;;;5.00;;
6177;SDS011;3122;48.208;11.174;2023-10-19T12:16:30;11.23;;;6.93;;
6177;SDS011;3122;48.208;11.174;2023-10-19T12:21:32;8.20;;;6.70;;
6177;SDS011;3122;48.208;11.174;2023-10-19T12:26:33;10.30;;;5.93;;
6177;SDS011;3122;48.208;11.174;2023-10-19T12:31:34;6.03;;;5.43;;
6177;SDS011;3122;48.208;11.174;2023-10-19T12:36:36;7.13;;;5.93;;
6177;SDS011;3122;48.208;11.174;2023-10-19T12:41:37;7.40;;;5.50;;
6177;SDS011;3122;48.208;11.174;2023-10-19T12:46:37;6.97;;;4.50;;
6177;SDS011;3122;48.208;11.174;2023-10-19T12:51:38;7.73;;;5.13;;
6177;SDS011;3122;48.208;11.174;2023-10-19T12:56:42;6.57;;;5.00;;
6177;SDS011;3122;48.208;11.174;2023-10-19T13:01:42;8.93;;;4.60;;
6177;SDS011;3122;48.208;11.174;2023-10-19T13:06:44;5.37;;;4.87;;
6177;SDS011;3122;48.208;11.174;2023-10-19T13:11:47;8.33;;;6.17;;
6177;SDS011;3122;48.208;11.174;2023-10-19T13:16:52;5.80;;;5.27;;
6177;SDS011;3122;48.208;11.174;2023-10-19T13:21:54;5.60;;;4.70;;
6177;SDS011;3122;48.208;11.174;2023-10-19T13:26:54;4.93;;;4.00;;
6177;SDS011;3122;48.208;11.174;2023-10-19T13:31:55;4.50;;;4.07;;
6177;SDS011;3122;48.208;11.174;2023-10-19T13:36:55;6.10;;;3.90;;
6177;SDS011;3122;48.208;11.174;2023-10-19T13:41:57;6.17;;;3.97;;
6177;SDS011;3122;48.208;11.174;2023-10-19T13:46:58;7.10;;;4.90;;
6177;SDS011;3122;48.208;11.174;2023-10-19T13:51:59;4.90;;;4.40;;
6177;SDS011;3122;48.208;11.174;2023-10-19T13:57:00;4.67;;;4.27;;
6177;SDS011;3122;48.208;11.174;2023-10-19T14:02:00;5.63;;;5.13;;
6177;SDS011;3122;48.208;11.174;2023-10-19T14:07:01;4.40;;;4.00;;
6177;SDS011;3122;48.208;11.174;2023-10-19T14:12:01;6.60;;;5.70;;
6177;SDS011;3122;48.208;11.174;2023-10-19T14:17:04;10.33;;;9.30;;
6177;SDS011;3122;48.208;11.174;2023-10-19T14:22:05;8.27;;;7.20;;
6177;SDS011;3122;48.208;11.174;2023-10-19T14:27:07;8.30;;;7.40;;
6177;SDS011;3122;48.208;11.174;2023-10-19T14:32:09;7.20;;;6.30;;
6177;SDS011;3122;48.208;11.174;2023-10-19T14:37:09;12.40;;;7.57;;
6177;SDS011;3122;48.208;11.174;2023-10-19T14:42:10;13.10;;;9.90;;
6177;SDS011;3122;48.208;11.174;2023-10-19T14:47:12;10.63;;;8.03;;
6177;SDS011;3122;48.208;11.174;2023-10-19T14:52:13;11.10;;;9.37;;
6177;SDS011;3122;48.208;11.174;2023-10-19T14:57:13;10.57;;;9.43;;
6177;SDS011;3122;48.208;11.174;2023-10-19T15:02:14;7.50;;;6.63;;
6177;SDS011;3122;48.208;11.174;2023-10-19T15:07:14;6.97;;;6.37;;
6177;SDS011;3122;48.208;11.174;2023-10-19T15:12:15;9.17;;;7.60;;
6177;SDS011;3122;48.208;11.174;2023-10-19T15:17:15;8.80;;;7.67;;
6177;SDS011;3122;48.208;11.174;2023-10-19T15:22:17;9.50;;;8.50;;
6177;SDS011;3122;48.208;11.174;2023-10-19T15:27:17;10.50;;;8.90;;
6177;SDS011;3122;48.208;11.174;2023-10-19T15:32:18;10.10;;;8.30;;
6177;SDS011;3122;48.208;11.174;2023-10-19T15:37:19;8.43;;;7.63;;
6177;SDS011;3122;48.208;11.174;2023-10-19T15:42:20;12.73;;;9.33;;
6177;SDS011;3122;48.208;11.174;2023-10-19T15:47:24;13.23;;;11.20;;
6177;SDS011;3122;48.208;11.174;2023-10-19T15:52:26;11.43;;;9.97;;
6177;SDS011;3122;48.208;11.174;2023-10-19T15:57:31;13.20;;;10.03;;
6177;SDS011;3122;48.208;11.174;2023-10-19T16:02:33;14.17;;;9.70;;
6177;SDS011;3122;48.208;11.174;2023-10-19T16:07:34;14.33;;;11.33;;
6177;SDS011;3122;48.208;11.174;2023-10-19T16:12:38;16.77;;;13.17;;
6177;SDS011;3122;48.208;11.174;2023-10-19T16:17:39;13.80;;;12.10;;
6177;SDS011;3122;48.208;11.174;2023-10-19T16:22:41;15.27;;;11.80;;
6177;SDS011;3122;48.208;11.174;2023-10-19T16:27:41;14.20;;;12.40;;
6177;SDS011;3122;48.208;11.174;2023-10-19T16:32:42;15.47;;;13.27;;
6177;SDS011;3122;48.208;11.174;2023-10-19T16:37:43;16.10;;;13.23;;
6177;SDS011;3122;48.208;11.174;2023-10-19T16:42:43;16.33;;;13.50;;
6177;SDS011;3122;48.208;11.174;2023-10-19T16:47:44;16.83;;;14.50;;
6177;SDS011;3122;48.208;11.174;2023-10-19T16:52:45;18.27;;;15.07;;
6177;SDS011;3122;48.208;11.174;2023-10-19T16:57:47;17.37;;;14.20;;
6177;SDS011;3122;48.208;11.174;2023-10-19T17:02:48;15.93;;;12.97;;
6177;SDS011;3122;48.208;11.174;2023-10-19T17:07:49;20.57;;;15.00;;
6177;SDS011;3122;48.208;11.174;2023-10-19T17:12:49;20.07;;;15.97;;
6177;SDS011;3122;48.208;11.174;2023-10-19T17:17:50;21.30;;;17.10;;
6177;SDS011;3122;48.208;11.174;2023-10-19T17:22:50;21.93;;;15.90;;
6177;SDS011;3122;48.208;11.174;2023-10-19T17:27:51;30.90;;;19.70;;
6177;SDS011;3122;48.208;11.174;2023-10-19T17:32:51;24.90;;;18.80;;
6177;SDS011;3122;48.208;11.174;2023-10-19T17:37:52;26.23;;;19.53;;
6177;SDS011;3122;48.208;11.174;2023-10-19T17:42:53;28.63;;;20.10;;
6177;SDS011;3122;48.208;11.174;2023-10-19T17:47:53;26.50;;;19.60;;
6177;SDS011;3122;48.208;11.174;2023-10-19T17:52:54;26.70;;;20.47;;
6177;SDS011;3122;48.208;11.174;2023-10-19T17:57:54;23.13;;;17.60;;
6177;SDS011;3122;48.208;11.174;2023-10-19T18:02:55;25.27;;;19.90;;
6177;SDS011;3122;48.208;11.174;2023-10-19T18:07:55;33.83;;;26.13;;
6177;SDS011;3122;48.208;11.174;2023-10-19T18:12:57;30.90;;;22.90;;
6177;SDS011;3122;48.208;11.174;2023-10-19T18:17:57;31.87;;;23.17;;
6177;SDS011;3122;48.208;11.174;2023-10-19T18:23:00;29.43;;;23.27;;
6177;SDS011;3122;48.208;11.174;2023-10-19T18:28:01;31.60;;;22.77;;
6177;SDS011;3122;48.208;11.174;2023-10-19T18:33:02;46.13;;;28.73;;
6177;SDS011;3122;48.208;11.174;2023-10-19T18:38:04;84.27;;;48.90;;
6177;SDS011;3122;48.208;11.174;2023-10-19T18:43:05;65.50;;;40.60;;
6177;SDS011;3122;48.208;11.174;2023-10-19T18:48:06;34.40;;;25.23;;
6177;SDS011;3122;48.208;11.174;2023-10-19T18:53:07;34.40;;;25.63;;
6177;SDS011;3122;48.208;11.174;2023-10-19T18:58:07;35.97;;;26.70;;
6177;SDS011;3122;48.208;11.174;2023-10-19T19:03:08;30.43;;;22.90;;
6177;SDS011;3122;48.208;11.174;2023-10-19T19:08:08;40.23;;;26.40;;
6177;SDS011;3122;48.208;11.174;2023-10-19T19:13:09;45.33;;;29.50;;
6177;SDS011;3122;48.208;11.174;2023-10-19T19:18:10;47.80;;;34.60;;
6177;SDS011;3122;48.208;11.174;2023-10-19T19:23:10;42.03;;;31.60;;
6177;SDS011;3122;48.208;11.174;2023-10-19T19:28:14;46.37;;;33.60;;
6177;SDS011;3122;48.208;11.174;2023-10-19T19:33:15;37.43;;;27.07;;
6177;SDS011;3122;48.208;11.174;2023-10-19T19:38:17;33.27;;;24.97;;
6177;SDS011;3122;48.208;11.174;2023-10-19T19:43:18;34.50;;;25.97;;
6177;SDS011;3122;48.208;11.174;2023-10-19T19:48:19;36.90;;;27.80;;
6177;SDS011;3122;48.208;11.174;2023-10-19T19:53:22;36.77;;;27.07;;
6177;SDS011;3122;48.208;11.174;2023-10-19T19:58:23;39.23;;;28.93;;
6177;SDS011;3122;48.208;11.174;2023-10-19T20:03:24;31.40;;;24.60;;
6177;SDS011;3122;48.208;11.174;2023-10-19T20:08:25;37.90;;;28.53;;
6177;SDS011;3122;48.208;11.174;2023-10-19T20:13:26;31.23;;;23.57;;
6177;SDS011;3122;48.208;11.174;2023-10-19T20:18:27;34.73;;;27.00;;
6177;SDS011;3122;48.208;11.174;2023-10-19T20:23:28;28.23;;;21.13;;
6177;SDS011;3122;48.208;11.174;2023-10-19T20:28:28;33.17;;;23.87;;
6177;SDS011;3122;48.208;11.174;2023-10-19T20:33:29;33.90;;;24.40;;
6177;SDS011;3122;48.208;11.174;2023-10-19T20:38:29;29.97;;;23.00;;
6177;SDS011;3122;48.208;11.174;2023-10-19T20:43:30;32.80;;;24.47;;
6177;SDS011;3122;48.208;11.174;2023-10-19T20:48:31;38.57;;;26.70;;
6177;SDS011;3122;48.208;11.174;2023-10-19T20:53:32;36.83;;;26.13;;
6177;SDS011;3122;48.208;11.174;2023-10-19T20:58:33;35.47;;;25.87;;
6177;SDS011;3122;48.208;11.174;2023-10-19T21:03:34;33.73;;;23.60;;
6177;SDS011;3122;48.208;11.174;2023-10-19T21:08:35;37.20;;;23.80;;
6177;SDS011;3122;48.208;11.174;2023-10-19T21:13:36;32.33;;;24.67;;
6177;SDS011;3122;48.208;11.174;2023-10-19T21:18:37;36.87;;;24.60;;
6177;SDS011;3122;48.208;11.174;2023-10-19T21:23:38;33.67;;;24.40;;
6177;SDS011;3122;48.208;11.174;2023-10-19T21:28:39;34.97;;;25.27;;
6177;SDS011;3122;48.208;11.174;2023-10-19T21:33:43;36.47;;;23.57;;
6177;SDS011;3122;48.208;11.174;2023-10-19T21:38:43;28.33;;;22.17;;
6177;SDS011;3122;48.208;11.174;2023-10-19T21:43:44;34.30;;;23.90;;
6177;SDS011;3122;48.208;11.174;2023-10-19T21:48:45;43.73;;;23.13;;
6177;SDS011;3122;48.208;11.174;2023-10-19T21:53:45;36.37;;;22.67;;
6177;SDS011;3122;48.208;11.174;2023-10-19T21:58:46;31.93;;;23.13;;
6177;SDS011;3122;48.208;11.174;2023-10-19T22:03:46;32.10;;;21.63;;
6177;SDS011;3122;48.208;11.174;2023-10-19T22:08:47;30.37;;;21.80;;
6177;SDS011;3122;48.208;11.174;2023-10-19T22:13:48;30.87;;;22.10;;
6177;SDS011;3122;48.208;11.174;2023-10-19T22:18:51;32.27;;;22.73;;
6177;SDS011;3122;48.208;11.174;2023-10-19T22:23:52;29.77;;;21.60;;
6177;SDS011;3122;48.208;11.174;2023-10-19T22:28:53;27.03;;;21.00;;
6177;SDS011;3122;48.208;11.174;2023-10-19T22:33:54;29.13;;;21.97;;
6177;SDS011;3122;48.208;11.174;2023-10-19T22:38:55;29.93;;;20.63;;
6177;SDS011;3122;48.208;11.174;2023-10-19T22:43:56;25.90;;;20.10;;
6177;SDS011;3122;48.208;11.174;2023-10-19T22:48:57;30.23;;;20.07;;
6177;SDS011;3122;48.208;11.174;2023-10-19T22:53:58;31.50;;;21.77;;
6177;SDS011;3122;48.208;11.174;2023-10-19T22:58:59;37.53;;;22.13;;
6177;SDS011;3122;48.208;11.174;2023-10-19T23:03:59;31.47;;;23.27;;
6177;SDS011;3122;48.208;11.174;2023-10-19T23:09:01;44.93;;;24.70;;
6177;SDS011;3122;48.208;11.174;2023-10-19T23:14:02;30.67;;;22.87;;
6177;SDS011;3122;48.208;11.174;2023-10-19T23:19:03;30.57;;;21.67;;
6177;SDS011;3122;48.208;11.174;2023-10-19T23:24:04;34.77;;;22.87;;
6177;SDS011;3122;48.208;11.174;2023-10-19T23:29:05;29.60;;;21.33;;
6177;SDS011;3122;48.208;11.174;2023-10-19T23:34:10;28.13;;;20.67;;
6177;SDS011;3122;48.208;11.174;2023-10-19T23:39:12;31.23;;;22.67;;
6177;SDS011;3122;48.208;11.174;2023-10-19T23:44:21;28.60;;;21.40;;
6177;SDS011;3122;48.208;11.174;2023-10-19T23:49:23;28.50;;;21.00;;
6177;SDS011;3122;48.208;11.174;2023-10-19T23:54:24;30.63;;;22.60;;
6177;SDS011;3122;48.208;11.174;2023-10-19T23:59:28;32.47;;;21.83;;
